KARB/ARB METAR and TAF weather

Enter ICAO airport designator
Station Type Date Time Source
KARB METAR 2021/07/24 18:53 UTC NOAA

KARB 241853Z 22012G19KT 5SM HZ CLR 27/22 A2989 RMK AO2 SLP115 T02720222


Station Type Date Time Source
KARB Decoded METAR 2021/07/24 18:53 UTC NOAA

ANN ARBOR MUNICIPAL AIRPORT, MI, United States (KARB) 42-13N 083-45W 251M
Jul 24, 2021 - 02:53 PM EDT / 2021.07.24 1853 UTC
Wind: from the SW (220 degrees) at 14 MPH (12 KT) gusting to 22 MPH (19 KT):0
Visibility: 5 mile(s):0
Sky conditions: clear
Weather: haze
Temperature: 81.0 F (27.2 C)
Dew Point: 72.0 F (22.2 C)
Relative Humidity: 74%
Pressure (altimeter): 29.89 in. Hg (1012 hPa)
ob: KARB 241853Z 22012G19KT 5SM HZ CLR 27/22 A2989 RMK AO2 SLP115 T02720222
cycle: 19

Station Type Date Time Source
KARB TAF UTC NOAA

Error!

Example: see airport list